Airfield :
LOGIN :

Register | Disclaimer

   EN    FR    IT 

 










Legend :    VFR   Marginal VFR   IFR   Intensive IFR   Very Intensive IFR
Visi :
Ceiling :
>= 8 km
>= 3000ft
5 to 8 km
1000 to 3000 ft
1500m to 5 km
500 to 1000 ft
800 to 1500m
200 to 500 ft
< 800m
< 200 ft
Symbols :   Thunderstorms  Fog  Heavy snow  Heavy precipitations  Wind > 20 kt
SIGMETs :     Misc.  Thunderstorms  Icing  Turbulence  Mountain Waves  Volcanic Ashes







- Airport Elevation : 1036 ft
- IATA code : ERF


EDDE - Erfurt

CURRENT METAR :
  • 150220Z 08003KT 050V110 9999 OVC030 M01/M04 Q1025

EXPIRED METARs :
  • 150150Z 08004KT 9999 OVC030 M01/M04 Q1025
  • 150120Z 08004KT 050V110 9999 OVC030 M01/M05 Q1025
  • 150050Z 09006KT 040V120 9999 OVC030 M01/M06 Q1025
  • 150020Z 09006KT 060V120 9999 OVC030 M01/M06 Q1025

TAF TAF EDDE
Valid from the 15 at 00:00 until the 16 at 00:00 UTC


142300Z 1500/1524 11005KT 9999 BKN030
PROB30
TEMPO 1506/1512 2500 -SN BKN007
No reported NOTAMs for that airfield.



MET'MAP, your aeronautical weather chart ! - Copyright ORBIFLY December 2007 - Disclaimer

ORBIFLY MET'MAP TEAM :

Programming & Development : Alexandra Zaïnal
Concept & Development : Baudouin d'Aumeries
Co-Development & Prog : Marc-Olivier Méhu
Technical & hardware support : Manuel Goepfert

Contact : metmap@orbifly.com




SOURCES & CREDITS :

   NOAA